Farmington, MO

3:13 AM CDT on July 06, 2015 (GMT -0500)
Farmington Regional | | Change Station
CLOSE
Current Station
Airport
Location: Farmington,
Elevation: 945 ft
Nearby Weather Stations

Elev 945 ft 37.76 °N, 90.43 °W | Updated 18 minutes ago

Overcast
Overcast
72 °F
Feels Like 72 °F
N
5
Wind Variable Wind from South

Today
High -- | Low -- °F
--% Chance of Precip.
Yesterday
High -- | Low -- °F
Precip. -- in
5:45 AM 8:26 PM
Waning Gibbous, 77% visible
Pressure 30.06 in
Visibility 5.0 miles
Clouds Overcast 800 ft
Dew Point 72 °F
Humidity 100%
Rainfall 0.00 in
Snow Depth Not available.
UV 0 out of 12
Pollen 3.80 out of 12
Air Quality Not available.
Flu Activity Not available.
METAR KFAM 060755Z AUTO 17004KT 5SM OVC008 22/22 A3006 RMK AO1

More Conditions Fewer Conditions

Pressure 30.06 in
Visibility 5.0 miles
Clouds Overcast 800 ft
Dew Point 72 °F
Humidity 100%
Rainfall 0.00 in
Snow Depth Not available.
UV 0 out of 12
Pollen 3.80 out of 12
Air Quality Not available.
Flu Activity Not available.
METAR KFAM 060755Z AUTO 17004KT 5SM OVC008 22/22 A3006 RMK AO1

More Conditions Fewer Conditions

10-Day Weather Forecast

×

Almanac

Astronomy

Jul. 06, 2015 Rise Set
Actual Time
Civil Twilight
Nautical Twilight
Astronomical Twilight
Moon
Length of Visible Light
Length of Day
Tomorrow will be .
, % of the Moon is Illuminated

Today's Extremes

State Highs State Lows

Community

WunderPhotos

Upload Photos

1,835,509 photos uploaded!

WunderBlogs® & News

Nearby

Air Quality

  Air Quality AQ Index Pollutant
Not available.

Snow Depth

Station Depth Elevation

Earthquake Activity

City Distance Mag. Time & Date
Minimum magnitude displayed is 2.5.

Coastal Water Temperatures

Place Temperature

Stations

Nearby Weather Stations

Station Location Temp. Windchill Dew Point Humidity Wind Precip. Elev Updated Type